sensor_id;sensor_type;location;lat;lon;timestamp;temperature;humidity
1259;DHT22;619;51.472;6.628;2023-05-16T00:01:12;15.80;82.80
1259;DHT22;619;51.472;6.628;2023-05-16T00:03:43;15.70;82.40
1259;DHT22;619;51.472;6.628;2023-05-16T00:06:15;15.70;83.00
1259;DHT22;619;51.472;6.628;2023-05-16T00:08:48;15.60;83.00
1259;DHT22;619;51.472;6.628;2023-05-16T00:11:18;15.60;83.00
1259;DHT22;619;51.472;6.628;2023-05-16T00:13:43;15.60;83.20
1259;DHT22;619;51.472;6.628;2023-05-16T00:16:11;15.50;83.20
1259;DHT22;619;51.472;6.628;2023-05-16T00:18:41;15.50;83.20
1259;DHT22;619;51.472;6.628;2023-05-16T00:21:09;15.50;83.40
1259;DHT22;619;51.472;6.628;2023-05-16T00:23:35;15.50;84.10
1259;DHT22;619;51.472;6.628;2023-05-16T00:26:03;15.50;83.20
1259;DHT22;619;51.472;6.628;2023-05-16T00:28:31;15.50;83.40
1259;DHT22;619;51.472;6.628;2023-05-16T00:30:59;15.50;83.80
1259;DHT22;619;51.472;6.628;2023-05-16T00:33:24;15.50;82.90
1259;DHT22;619;51.472;6.628;2023-05-16T00:35:52;15.50;82.80
1259;DHT22;619;51.472;6.628;2023-05-16T00:38:21;15.50;83.00
1259;DHT22;619;51.472;6.628;2023-05-16T00:40:49;15.50;82.90
1259;DHT22;619;51.472;6.628;2023-05-16T00:43:17;15.50;82.40
1259;DHT22;619;51.472;6.628;2023-05-16T00:45:42;15.40;82.50
1259;DHT22;619;51.472;6.628;2023-05-16T00:48:13;15.40;82.80
1259;DHT22;619;51.472;6.628;2023-05-16T00:50:40;15.50;83.00
1259;DHT22;619;51.472;6.628;2023-05-16T00:53:08;15.40;82.40
1259;DHT22;619;51.472;6.628;2023-05-16T00:55:36;15.40;82.20
1259;DHT22;619;51.472;6.628;2023-05-16T00:58:06;15.30;82.00
1259;DHT22;619;51.472;6.628;2023-05-16T01:00:34;15.30;81.80
1259;DHT22;619;51.472;6.628;2023-05-16T01:03:04;15.30;82.10
1259;DHT22;619;51.472;6.628;2023-05-16T01:05:33;15.20;81.50
1259;DHT22;619;51.472;6.628;2023-05-16T01:07:58;15.20;81.80
1259;DHT22;619;51.472;6.628;2023-05-16T01:10:30;15.20;81.90
1259;DHT22;619;51.472;6.628;2023-05-16T01:13:11;15.20;81.90
1259;DHT22;619;51.472;6.628;2023-05-16T01:15:47;15.20;82.10
1259;DHT22;619;51.472;6.628;2023-05-16T01:21:12;15.10;81.90
1259;DHT22;619;51.472;6.628;2023-05-16T01:24:11;15.10;81.90
1259;DHT22;619;51.472;6.628;2023-05-16T01:26:33;15.10;81.80
1259;DHT22;619;51.472;6.628;2023-05-16T01:29:04;15.20;81.80
1259;DHT22;619;51.472;6.628;2023-05-16T01:31:32;15.10;81.50
1259;DHT22;619;51.472;6.628;2023-05-16T01:33:57;15.10;80.90
1259;DHT22;619;51.472;6.628;2023-05-16T01:41:22;15.10;81.00
1259;DHT22;619;51.472;6.628;2023-05-16T01:43:58;15.10;81.10
1259;DHT22;619;51.472;6.628;2023-05-16T01:46:26;15.10;80.70
1259;DHT22;619;51.472;6.628;2023-05-16T01:49:12;15.10;80.40
1259;DHT22;619;51.472;6.628;2023-05-16T01:51:44;15.00;80.10
1259;DHT22;619;51.472;6.628;2023-05-16T01:54:11;15.00;80.40
1259;DHT22;619;51.472;6.628;2023-05-16T01:56:38;15.00;80.50
1259;DHT22;619;51.472;6.628;2023-05-16T01:59:06;15.00;79.30
1259;DHT22;619;51.472;6.628;2023-05-16T02:01:33;15.00;79.50
1259;DHT22;619;51.472;6.628;2023-05-16T02:03:59;14.90;79.60
1259;DHT22;619;51.472;6.628;2023-05-16T02:06:24;14.90;79.50
1259;DHT22;619;51.472;6.628;2023-05-16T02:08:50;14.90;79.30
1259;DHT22;619;51.472;6.628;2023-05-16T02:11:16;14.90;79.50
1259;DHT22;619;51.472;6.628;2023-05-16T02:13:42;14.90;79.70
1259;DHT22;619;51.472;6.628;2023-05-16T02:16:10;14.90;79.60
1259;DHT22;619;51.472;6.628;2023-05-16T02:18:38;14.90;79.70
1259;DHT22;619;51.472;6.628;2023-05-16T02:21:03;14.90;80.10
1259;DHT22;619;51.472;6.628;2023-05-16T02:23:29;15.00;80.20
1259;DHT22;619;51.472;6.628;2023-05-16T02:25:55;15.00;79.80
1259;DHT22;619;51.472;6.628;2023-05-16T02:28:22;14.90;79.30
1259;DHT22;619;51.472;6.628;2023-05-16T02:30:58;14.90;79.20
1259;DHT22;619;51.472;6.628;2023-05-16T02:33:25;14.90;79.20
1259;DHT22;619;51.472;6.628;2023-05-16T02:35:54;14.90;79.10
1259;DHT22;619;51.472;6.628;2023-05-16T02:38:20;14.90;79.30
1259;DHT22;619;51.472;6.628;2023-05-16T02:40:46;15.00;79.40
1259;DHT22;619;51.472;6.628;2023-05-16T02:43:12;15.00;79.30
1259;DHT22;619;51.472;6.628;2023-05-16T02:45:40;15.00;79.00
1259;DHT22;619;51.472;6.628;2023-05-16T02:48:06;15.00;78.20
1259;DHT22;619;51.472;6.628;2023-05-16T02:50:32;15.00;78.40
1259;DHT22;619;51.472;6.628;2023-05-16T02:52:59;14.90;78.10
1259;DHT22;619;51.472;6.628;2023-05-16T02:55:29;14.80;78.00
1259;DHT22;619;51.472;6.628;2023-05-16T02:57:55;14.70;78.00
1259;DHT22;619;51.472;6.628;2023-05-16T03:00:20;14.70;78.30
1259;DHT22;619;51.472;6.628;2023-05-16T03:02:46;14.60;77.80
1259;DHT22;619;51.472;6.628;2023-05-16T03:05:16;14.50;78.00
1259;DHT22;619;51.472;6.628;2023-05-16T03:07:44;14.40;77.80
1259;DHT22;619;51.472;6.628;2023-05-16T03:10:10;14.40;77.80
1259;DHT22;619;51.472;6.628;2023-05-16T03:12:35;14.40;78.30
1259;DHT22;619;51.472;6.628;2023-05-16T03:15:01;14.30;78.20
1259;DHT22;619;51.472;6.628;2023-05-16T03:17:29;14.30;78.20
1259;DHT22;619;51.472;6.628;2023-05-16T03:19:57;14.30;78.50
1259;DHT22;619;51.472;6.628;2023-05-16T03:22:25;14.30;78.20
1259;DHT22;619;51.472;6.628;2023-05-16T03:24:53;14.20;78.40
1259;DHT22;619;51.472;6.628;2023-05-16T03:27:18;14.20;78.70
1259;DHT22;619;51.472;6.628;2023-05-16T03:29:44;14.20;78.90
1259;DHT22;619;51.472;6.628;2023-05-16T03:32:13;14.10;78.90
1259;DHT22;619;51.472;6.628;2023-05-16T03:34:41;14.10;79.20
1259;DHT22;619;51.472;6.628;2023-05-16T03:37:06;14.00;79.60
1259;DHT22;619;51.472;6.628;2023-05-16T03:39:35;14.00;78.70
1259;DHT22;619;51.472;6.628;2023-05-16T03:42:00;14.00;79.00
1259;DHT22;619;51.472;6.628;2023-05-16T03:44:26;13.90;78.90
1259;DHT22;619;51.472;6.628;2023-05-16T03:46:52;13.90;79.00
1259;DHT22;619;51.472;6.628;2023-05-16T03:49:19;13.90;79.00
1259;DHT22;619;51.472;6.628;2023-05-16T03:51:45;13.90;79.20
1259;DHT22;619;51.472;6.628;2023-05-16T03:54:15;13.80;79.10
1259;DHT22;619;51.472;6.628;2023-05-16T03:56:44;13.80;79.10
1259;DHT22;619;51.472;6.628;2023-05-16T03:59:12;13.80;79.10
1259;DHT22;619;51.472;6.628;2023-05-16T04:01:40;13.80;79.00
1259;DHT22;619;51.472;6.628;2023-05-16T04:04:05;13.80;79.10
1259;DHT22;619;51.472;6.628;2023-05-16T04:06:33;13.80;79.20
1259;DHT22;619;51.472;6.628;2023-05-16T04:08:59;13.70;78.90
1259;DHT22;619;51.472;6.628;2023-05-16T04:11:25;13.70;79.00
1259;DHT22;619;51.472;6.628;2023-05-16T04:13:51;13.70;79.00
1259;DHT22;619;51.472;6.628;2023-05-16T04:16:19;13.70;78.90
1259;DHT22;619;51.472;6.628;2023-05-16T04:18:45;13.70;79.20
1259;DHT22;619;51.472;6.628;2023-05-16T04:21:10;13.60;79.00
1259;DHT22;619;51.472;6.628;2023-05-16T04:23:40;13.60;79.00
1259;DHT22;619;51.472;6.628;2023-05-16T04:26:10;13.60;79.10
1259;DHT22;619;51.472;6.628;2023-05-16T04:28:35;13.60;79.20
1259;DHT22;619;51.472;6.628;2023-05-16T04:31:03;13.60;78.80
1259;DHT22;619;51.472;6.628;2023-05-16T04:33:31;13.60;79.00
1259;DHT22;619;51.472;6.628;2023-05-16T04:35:59;13.60;78.80
1259;DHT22;619;51.472;6.628;2023-05-16T04:38:28;13.60;78.50
1259;DHT22;619;51.472;6.628;2023-05-16T04:40:56;13.60;78.20
1259;DHT22;619;51.472;6.628;2023-05-16T04:43:21;13.60;78.40
1259;DHT22;619;51.472;6.628;2023-05-16T04:45:49;13.60;78.40
1259;DHT22;619;51.472;6.628;2023-05-16T04:48:15;13.60;78.10
1259;DHT22;619;51.472;6.628;2023-05-16T04:50:45;13.60;77.90
1259;DHT22;619;51.472;6.628;2023-05-16T04:53:11;13.60;78.10
1259;DHT22;619;51.472;6.628;2023-05-16T04:55:39;13.60;78.50
1259;DHT22;619;51.472;6.628;2023-05-16T04:58:05;13.70;78.40
1259;DHT22;619;51.472;6.628;2023-05-16T05:00:33;13.70;78.50
1259;DHT22;619;51.472;6.628;2023-05-16T05:02:58;13.80;78.50
1259;DHT22;619;51.472;6.628;2023-05-16T05:05:26;13.80;78.70
1259;DHT22;619;51.472;6.628;2023-05-16T05:07:52;13.90;78.50
1259;DHT22;619;51.472;6.628;2023-05-16T05:10:20;13.90;78.20
1259;DHT22;619;51.472;6.628;2023-05-16T05:12:46;14.00;78.30
1259;DHT22;619;51.472;6.628;2023-05-16T05:15:11;14.00;77.80
1259;DHT22;619;51.472;6.628;2023-05-16T05:17:40;14.00;77.50
1259;DHT22;619;51.472;6.628;2023-05-16T05:20:08;14.10;77.50
1259;DHT22;619;51.472;6.628;2023-05-16T05:22:35;14.10;77.70
1259;DHT22;619;51.472;6.628;2023-05-16T05:25:00;14.10;78.10
1259;DHT22;619;51.472;6.628;2023-05-16T05:27:28;14.10;77.80
1259;DHT22;619;51.472;6.628;2023-05-16T05:29:56;14.10;77.90
1259;DHT22;619;51.472;6.628;2023-05-16T05:32:21;14.20;78.10
1259;DHT22;619;51.472;6.628;2023-05-16T05:34:49;14.20;78.10
1259;DHT22;619;51.472;6.628;2023-05-16T05:37:17;14.20;77.90
1259;DHT22;619;51.472;6.628;2023-05-16T05:39:45;14.20;78.00
1259;DHT22;619;51.472;6.628;2023-05-16T05:42:11;14.30;78.10
1259;DHT22;619;51.472;6.628;2023-05-16T05:44:37;14.30;78.00
1259;DHT22;619;51.472;6.628;2023-05-16T05:47:05;14.40;77.90
1259;DHT22;619;51.472;6.628;2023-05-16T05:49:31;14.40;77.90
1259;DHT22;619;51.472;6.628;2023-05-16T05:52:00;14.50;78.00
1259;DHT22;619;51.472;6.628;2023-05-16T05:54:28;14.50;77.00
1259;DHT22;619;51.472;6.628;2023-05-16T05:56:57;14.50;77.10
1259;DHT22;619;51.472;6.628;2023-05-16T05:59:22;14.50;77.30
1259;DHT22;619;51.472;6.628;2023-05-16T06:01:48;14.60;77.30
1259;DHT22;619;51.472;6.628;2023-05-16T06:04:17;14.60;77.00
1259;DHT22;619;51.472;6.628;2023-05-16T06:06:48;14.60;77.00
1259;DHT22;619;51.472;6.628;2023-05-16T06:09:13;14.70;77.30
1259;DHT22;619;51.472;6.628;2023-05-16T06:11:40;14.70;77.00
1259;DHT22;619;51.472;6.628;2023-05-16T06:14:10;14.80;76.60
1259;DHT22;619;51.472;6.628;2023-05-16T06:16:38;14.90;76.50
1259;DHT22;619;51.472;6.628;2023-05-16T06:19:04;14.90;76.20
1259;DHT22;619;51.472;6.628;2023-05-16T06:21:32;14.80;75.40
1259;DHT22;619;51.472;6.628;2023-05-16T06:24:01;14.90;75.70
1259;DHT22;619;51.472;6.628;2023-05-16T06:26:26;14.90;75.60
1259;DHT22;619;51.472;6.628;2023-05-16T06:28:54;14.90;75.60
1259;DHT22;619;51.472;6.628;2023-05-16T06:31:22;15.00;75.90
1259;DHT22;619;51.472;6.628;2023-05-16T06:33:48;15.00;75.40
1259;DHT22;619;51.472;6.628;2023-05-16T06:36:18;15.10;75.70
1259;DHT22;619;51.472;6.628;2023-05-16T06:38:43;15.20;76.10
1259;DHT22;619;51.472;6.628;2023-05-16T06:41:09;15.20;75.90
1259;DHT22;619;51.472;6.628;2023-05-16T06:43:35;15.20;75.60
1259;DHT22;619;51.472;6.628;2023-05-16T06:46:00;15.30;75.50
1259;DHT22;619;51.472;6.628;2023-05-16T06:48:26;15.40;75.30
1259;DHT22;619;51.472;6.628;2023-05-16T06:50:56;15.50;75.10
1259;DHT22;619;51.472;6.628;2023-05-16T06:53:24;15.60;74.80
1259;DHT22;619;51.472;6.628;2023-05-16T06:55:50;15.70;73.80
1259;DHT22;619;51.472;6.628;2023-05-16T06:58:18;15.90;73.40
1259;DHT22;619;51.472;6.628;2023-05-16T07:00:44;16.00;72.90
1259;DHT22;619;51.472;6.628;2023-05-16T07:03:09;16.10;71.40
1259;DHT22;619;51.472;6.628;2023-05-16T07:05:35;16.10;70.20
1259;DHT22;619;51.472;6.628;2023-05-16T07:08:03;16.10;69.30
1259;DHT22;619;51.472;6.628;2023-05-16T07:10:33;16.10;69.50
1259;DHT22;619;51.472;6.628;2023-05-16T07:12:59;16.20;69.50
1259;DHT22;619;51.472;6.628;2023-05-16T07:15:28;16.20;69.20
1259;DHT22;619;51.472;6.628;2023-05-16T07:17:58;16.30;70.00
1259;DHT22;619;51.472;6.628;2023-05-16T07:20:24;16.40;69.60
1259;DHT22;619;51.472;6.628;2023-05-16T07:22:52;16.50;69.60
1259;DHT22;619;51.472;6.628;2023-05-16T07:25:18;16.50;68.60
1259;DHT22;619;51.472;6.628;2023-05-16T07:27:43;16.60;69.40
1259;DHT22;619;51.472;6.628;2023-05-16T07:30:14;16.70;67.90
1259;DHT22;619;51.472;6.628;2023-05-16T07:32:42;16.80;68.20
1259;DHT22;619;51.472;6.628;2023-05-16T07:35:08;16.90;65.80
1259;DHT22;619;51.472;6.628;2023-05-16T07:37:37;16.90;65.80
1259;DHT22;619;51.472;6.628;2023-05-16T07:40:06;17.00;65.70
1259;DHT22;619;51.472;6.628;2023-05-16T07:42:32;17.10;66.20
1259;DHT22;619;51.472;6.628;2023-05-16T07:45:00;17.20;64.20
1259;DHT22;619;51.472;6.628;2023-05-16T07:47:26;17.10;66.00
1259;DHT22;619;51.472;6.628;2023-05-16T07:49:52;17.30;63.10
1259;DHT22;619;51.472;6.628;2023-05-16T07:52:17;17.40;64.10
1259;DHT22;619;51.472;6.628;2023-05-16T07:54:45;17.70;65.30
1259;DHT22;619;51.472;6.628;2023-05-16T07:57:12;17.90;65.20
1259;DHT22;619;51.472;6.628;2023-05-16T07:59:38;17.90;62.60
1259;DHT22;619;51.472;6.628;2023-05-16T08:02:03;17.90;63.70
1259;DHT22;619;51.472;6.628;2023-05-16T08:04:31;18.00;63.70
1259;DHT22;619;51.472;6.628;2023-05-16T08:06:57;18.00;63.90
1259;DHT22;619;51.472;6.628;2023-05-16T08:09:22;18.10;63.80
1259;DHT22;619;51.472;6.628;2023-05-16T08:11:48;18.20;61.20
1259;DHT22;619;51.472;6.628;2023-05-16T08:14:14;18.30;63.40
1259;DHT22;619;51.472;6.628;2023-05-16T08:16:39;18.50;65.00
1259;DHT22;619;51.472;6.628;2023-05-16T08:19:07;18.70;66.50
1259;DHT22;619;51.472;6.628;2023-05-16T08:21:33;19.00;66.40
1259;DHT22;619;51.472;6.628;2023-05-16T08:23:58;19.20;60.60
1259;DHT22;619;51.472;6.628;2023-05-16T08:26:26;19.30;61.00
1259;DHT22;619;51.472;6.628;2023-05-16T08:28:52;19.50;59.40
1259;DHT22;619;51.472;6.628;2023-05-16T08:31:20;19.80;59.60
1259;DHT22;619;51.472;6.628;2023-05-16T08:33:50;19.90;57.70
1259;DHT22;619;51.472;6.628;2023-05-16T08:36:16;20.10;58.80
1259;DHT22;619;51.472;6.628;2023-05-16T08:38:48;20.20;58.30
1259;DHT22;619;51.472;6.628;2023-05-16T08:41:13;20.20;59.50
1259;DHT22;619;51.472;6.628;2023-05-16T08:43:39;20.20;59.10
1259;DHT22;619;51.472;6.628;2023-05-16T08:46:06;20.10;61.50
1259;DHT22;619;51.472;6.628;2023-05-16T08:48:35;20.00;59.10
1259;DHT22;619;51.472;6.628;2023-05-16T08:51:07;19.80;59.90
1259;DHT22;619;51.472;6.628;2023-05-16T08:53:43;19.80;60.30
1259;DHT22;619;51.472;6.628;2023-05-16T08:56:12;19.80;60.50
1259;DHT22;619;51.472;6.628;2023-05-16T08:58:41;19.70;60.30
1259;DHT22;619;51.472;6.628;2023-05-16T09:01:09;19.80;57.40
1259;DHT22;619;51.472;6.628;2023-05-16T09:03:38;19.90;61.10
1259;DHT22;619;51.472;6.628;2023-05-16T09:06:04;20.00;55.90
1259;DHT22;619;51.472;6.628;2023-05-16T09:08:30;20.10;57.90
1259;DHT22;619;51.472;6.628;2023-05-16T09:10:56;20.30;59.10
1259;DHT22;619;51.472;6.628;2023-05-16T09:13:25;20.50;56.10
1259;DHT22;619;51.472;6.628;2023-05-16T09:16:14;20.70;58.70
1259;DHT22;619;51.472;6.628;2023-05-16T09:18:52;21.00;55.00
1259;DHT22;619;51.472;6.628;2023-05-16T09:21:26;21.30;54.10
1259;DHT22;619;51.472;6.628;2023-05-16T09:23:52;21.40;55.50
1259;DHT22;619;51.472;6.628;2023-05-16T09:26:17;21.30;56.30
1259;DHT22;619;51.472;6.628;2023-05-16T09:28:45;21.30;56.20
1259;DHT22;619;51.472;6.628;2023-05-16T09:33:47;21.00;55.70
1259;DHT22;619;51.472;6.628;2023-05-16T09:36:17;20.80;55.60
1259;DHT22;619;51.472;6.628;2023-05-16T09:38:45;20.60;55.80
1259;DHT22;619;51.472;6.628;2023-05-16T09:41:11;20.40;56.20
1259;DHT22;619;51.472;6.628;2023-05-16T09:43:41;20.40;56.40
1259;DHT22;619;51.472;6.628;2023-05-16T09:46:11;20.40;55.70
1259;DHT22;619;51.472;6.628;2023-05-16T09:48:48;20.50;55.60
1259;DHT22;619;51.472;6.628;2023-05-16T09:51:22;20.60;55.80
1259;DHT22;619;51.472;6.628;2023-05-16T09:53:48;20.80;55.50
1259;DHT22;619;51.472;6.628;2023-05-16T09:56:14;21.00;55.20
1259;DHT22;619;51.472;6.628;2023-05-16T09:58:42;21.10;54.40
1259;DHT22;619;51.472;6.628;2023-05-16T10:01:11;21.10;53.90
1259;DHT22;619;51.472;6.628;2023-05-16T10:03:39;21.20;54.10
1259;DHT22;619;51.472;6.628;2023-05-16T10:06:06;21.10;53.80
1259;DHT22;619;51.472;6.628;2023-05-16T10:08:35;21.00;54.30
1259;DHT22;619;51.472;6.628;2023-05-16T10:11:03;21.00;53.60
1259;DHT22;619;51.472;6.628;2023-05-16T10:13:31;20.70;53.50
1259;DHT22;619;51.472;6.628;2023-05-16T10:15:58;20.50;53.80
1259;DHT22;619;51.472;6.628;2023-05-16T10:18:29;20.40;54.80
1259;DHT22;619;51.472;6.628;2023-05-16T10:20:57;20.30;54.40
1259;DHT22;619;51.472;6.628;2023-05-16T10:23:25;20.20;55.00
1259;DHT22;619;51.472;6.628;2023-05-16T10:25:51;20.10;55.30
1259;DHT22;619;51.472;6.628;2023-05-16T10:28:20;20.10;54.60
1259;DHT22;619;51.472;6.628;2023-05-16T10:30:48;20.00;55.00
1259;DHT22;619;51.472;6.628;2023-05-16T10:33:17;20.00;55.40
1259;DHT22;619;51.472;6.628;2023-05-16T10:35:47;20.10;55.80
1259;DHT22;619;51.472;6.628;2023-05-16T10:38:17;20.40;55.60
1259;DHT22;619;51.472;6.628;2023-05-16T10:40:44;20.60;54.50
1259;DHT22;619;51.472;6.628;2023-05-16T10:43:22;20.80;53.40
1259;DHT22;619;51.472;6.628;2023-05-16T10:45:58;20.90;53.80
1259;DHT22;619;51.472;6.628;2023-05-16T10:48:32;21.00;53.10
1259;DHT22;619;51.472;6.628;2023-05-16T10:51:01;20.90;52.30
1259;DHT22;619;51.472;6.628;2023-05-16T11:17:10;21.50;49.10
1259;DHT22;619;51.472;6.628;2023-05-16T11:25:06;20.80;51.00
1259;DHT22;619;51.472;6.628;2023-05-16T11:27:36;20.70;52.50
1259;DHT22;619;51.472;6.628;2023-05-16T11:32:35;20.50;53.50
1259;DHT22;619;51.472;6.628;2023-05-16T11:35:08;20.50;54.00
1259;DHT22;619;51.472;6.628;2023-05-16T11:37:34;20.50;54.40
1259;DHT22;619;51.472;6.628;2023-05-16T11:40:08;20.60;54.70
1259;DHT22;619;51.472;6.628;2023-05-16T11:42:38;20.70;53.70
1259;DHT22;619;51.472;6.628;2023-05-16T11:45:13;20.90;52.80
1259;DHT22;619;51.472;6.628;2023-05-16T11:47:39;21.10;52.10
1259;DHT22;619;51.472;6.628;2023-05-16T11:50:06;21.30;51.20
1259;DHT22;619;51.472;6.628;2023-05-16T11:52:34;21.40;50.40
1259;DHT22;619;51.472;6.628;2023-05-16T11:55:00;21.50;48.10
1259;DHT22;619;51.472;6.628;2023-05-16T11:57:26;21.60;49.10
1259;DHT22;619;51.472;6.628;2023-05-16T11:59:55;21.70;49.10
1259;DHT22;619;51.472;6.628;2023-05-16T12:02:20;21.80;49.50
1259;DHT22;619;51.472;6.628;2023-05-16T12:04:46;22.00;50.00
1259;DHT22;619;51.472;6.628;2023-05-16T12:07:14;22.20;47.10
1259;DHT22;619;51.472;6.628;2023-05-16T12:09:40;22.30;46.90
1259;DHT22;619;51.472;6.628;2023-05-16T12:12:08;22.40;46.10
1259;DHT22;619;51.472;6.628;2023-05-16T12:14:36;22.50;47.20
1259;DHT22;619;51.472;6.628;2023-05-16T12:17:02;22.60;45.60
1259;DHT22;619;51.472;6.628;2023-05-16T12:19:28;22.60;46.40
1259;DHT22;619;51.472;6.628;2023-05-16T12:21:54;22.70;46.40
1259;DHT22;619;51.472;6.628;2023-05-16T12:24:20;22.80;45.20
1259;DHT22;619;51.472;6.628;2023-05-16T12:26:46;22.90;44.50
1259;DHT22;619;51.472;6.628;2023-05-16T12:29:16;22.90;44.80
1259;DHT22;619;51.472;6.628;2023-05-16T12:31:45;23.00;45.10
1259;DHT22;619;51.472;6.628;2023-05-16T12:34:17;23.00;44.50
1259;DHT22;619;51.472;6.628;2023-05-16T12:36:45;23.00;44.00
1259;DHT22;619;51.472;6.628;2023-05-16T12:39:19;23.00;44.20
1259;DHT22;619;51.472;6.628;2023-05-16T12:41:50;23.00;44.60
1259;DHT22;619;51.472;6.628;2023-05-16T12:44:18;23.10;44.90
1259;DHT22;619;51.472;6.628;2023-05-16T12:46:51;23.20;45.10
1259;DHT22;619;51.472;6.628;2023-05-16T12:49:22;23.30;46.50
1259;DHT22;619;51.472;6.628;2023-05-16T12:51:55;23.50;45.60
1259;DHT22;619;51.472;6.628;2023-05-16T12:54:22;23.70;46.30
1259;DHT22;619;51.472;6.628;2023-05-16T12:56:48;23.90;45.30
1259;DHT22;619;51.472;6.628;2023-05-16T12:59:14;24.10;44.90
1259;DHT22;619;51.472;6.628;2023-05-16T13:01:42;24.30;44.00
1259;DHT22;619;51.472;6.628;2023-05-16T13:04:10;24.60;44.50
1259;DHT22;619;51.472;6.628;2023-05-16T13:06:43;24.60;42.80
1259;DHT22;619;51.472;6.628;2023-05-16T13:09:08;24.50;43.70
1259;DHT22;619;51.472;6.628;2023-05-16T13:11:35;24.30;43.30
1259;DHT22;619;51.472;6.628;2023-05-16T13:14:01;24.10;43.30
1259;DHT22;619;51.472;6.628;2023-05-16T13:16:29;23.80;42.00
1259;DHT22;619;51.472;6.628;2023-05-16T13:18:54;23.40;41.30
1259;DHT22;619;51.472;6.628;2023-05-16T13:21:20;23.00;41.80
1259;DHT22;619;51.472;6.628;2023-05-16T13:23:48;22.80;43.20
1259;DHT22;619;51.472;6.628;2023-05-16T13:26:18;22.80;44.80
1259;DHT22;619;51.472;6.628;2023-05-16T13:28:44;22.90;45.50
1259;DHT22;619;51.472;6.628;2023-05-16T13:31:09;23.10;46.00
1259;DHT22;619;51.472;6.628;2023-05-16T13:33:35;23.40;45.10
1259;DHT22;619;51.472;6.628;2023-05-16T13:36:02;23.60;44.60
1259;DHT22;619;51.472;6.628;2023-05-16T13:38:30;23.60;43.90
1259;DHT22;619;51.472;6.628;2023-05-16T13:40:56;23.80;44.20
1259;DHT22;619;51.472;6.628;2023-05-16T13:45:52;24.10;43.60
1259;DHT22;619;51.472;6.628;2023-05-16T13:48:18;24.40;44.00
1259;DHT22;619;51.472;6.628;2023-05-16T13:50:48;24.40;44.00
1259;DHT22;619;51.472;6.628;2023-05-16T13:53:14;24.40;43.20
1259;DHT22;619;51.472;6.628;2023-05-16T13:55:40;24.60;44.70
1259;DHT22;619;51.472;6.628;2023-05-16T13:58:06;24.70;44.80
1259;DHT22;619;51.472;6.628;2023-05-16T14:00:31;24.90;43.80
1259;DHT22;619;51.472;6.628;2023-05-16T14:02:59;24.90;42.30
1259;DHT22;619;51.472;6.628;2023-05-16T14:05:27;25.10;43.20
1259;DHT22;619;51.472;6.628;2023-05-16T14:07:53;25.00;41.80
1259;DHT22;619;51.472;6.628;2023-05-16T14:10:23;24.80;41.80
1259;DHT22;619;51.472;6.628;2023-05-16T14:12:51;24.50;41.80
1259;DHT22;619;51.472;6.628;2023-05-16T14:15:17;24.10;41.20
1259;DHT22;619;51.472;6.628;2023-05-16T14:17:43;23.70;42.30
1259;DHT22;619;51.472;6.628;2023-05-16T14:20:08;23.40;42.90
1259;DHT22;619;51.472;6.628;2023-05-16T14:22:36;23.10;43.80
1259;DHT22;619;51.472;6.628;2023-05-16T14:25:05;22.80;43.50
1259;DHT22;619;51.472;6.628;2023-05-16T14:27:31;22.70;45.10
1259;DHT22;619;51.472;6.628;2023-05-16T14:29:57;22.60;44.90
1259;DHT22;619;51.472;6.628;2023-05-16T14:32:23;22.50;44.60
1259;DHT22;619;51.472;6.628;2023-05-16T14:34:48;22.40;44.80
1259;DHT22;619;51.472;6.628;2023-05-16T14:37:14;22.30;45.20
1259;DHT22;619;51.472;6.628;2023-05-16T14:39:43;22.20;46.10
1259;DHT22;619;51.472;6.628;2023-05-16T14:42:10;22.10;45.30
1259;DHT22;619;51.472;6.628;2023-05-16T14:44:37;22.00;45.80
1259;DHT22;619;51.472;6.628;2023-05-16T14:47:05;21.90;46.10
1259;DHT22;619;51.472;6.628;2023-05-16T14:49:30;21.70;46.50
1259;DHT22;619;51.472;6.628;2023-05-16T14:51:56;21.50;46.60
1259;DHT22;619;51.472;6.628;2023-05-16T14:54:24;21.30;47.30
1259;DHT22;619;51.472;6.628;2023-05-16T14:56:50;21.10;47.00
1259;DHT22;619;51.472;6.628;2023-05-16T14:59:15;21.00;47.70
1259;DHT22;619;51.472;6.628;2023-05-16T15:01:41;21.00;48.50
1259;DHT22;619;51.472;6.628;2023-05-16T15:04:07;20.80;47.90
1259;DHT22;619;51.472;6.628;2023-05-16T15:06:34;20.80;48.50
1259;DHT22;619;51.472;6.628;2023-05-16T15:09:03;20.70;48.70
1259;DHT22;619;51.472;6.628;2023-05-16T15:11:29;20.60;49.00
1259;DHT22;619;51.472;6.628;2023-05-16T15:13:58;20.60;49.20
1259;DHT22;619;51.472;6.628;2023-05-16T15:16:24;20.50;49.90
1259;DHT22;619;51.472;6.628;2023-05-16T15:18:52;20.40;50.00
1259;DHT22;619;51.472;6.628;2023-05-16T15:21:18;20.40;50.70
1259;DHT22;619;51.472;6.628;2023-05-16T15:23:44;20.40;50.70
1259;DHT22;619;51.472;6.628;2023-05-16T15:26:09;20.20;51.10
1259;DHT22;619;51.472;6.628;2023-05-16T15:28:38;20.10;51.40
1259;DHT22;619;51.472;6.628;2023-05-16T15:31:06;20.00;51.60
1259;DHT22;619;51.472;6.628;2023-05-16T15:33:34;19.80;51.80
1259;DHT22;619;51.472;6.628;2023-05-16T15:36:02;19.70;52.00
1259;DHT22;619;51.472;6.628;2023-05-16T15:38:28;19.60;52.80
1259;DHT22;619;51.472;6.628;2023-05-16T15:40:54;19.50;53.20
1259;DHT22;619;51.472;6.628;2023-05-16T15:43:20;19.40;53.20
1259;DHT22;619;51.472;6.628;2023-05-16T15:45:45;19.40;53.50
1259;DHT22;619;51.472;6.628;2023-05-16T15:48:11;19.30;53.70
1259;DHT22;619;51.472;6.628;2023-05-16T15:50:39;19.20;53.80
1259;DHT22;619;51.472;6.628;2023-05-16T15:53:05;19.20;54.10
1259;DHT22;619;51.472;6.628;2023-05-16T15:55:30;19.40;54.40
1259;DHT22;619;51.472;6.628;2023-05-16T15:57:58;19.40;54.50
1259;DHT22;619;51.472;6.628;2023-05-16T16:00:26;19.40;54.10
1259;DHT22;619;51.472;6.628;2023-05-16T16:02:52;19.40;54.50
1259;DHT22;619;51.472;6.628;2023-05-16T16:05:22;19.50;54.60
1259;DHT22;619;51.472;6.628;2023-05-16T16:07:48;19.60;55.00
1259;DHT22;619;51.472;6.628;2023-05-16T16:10:13;19.70;54.10
1259;DHT22;619;51.472;6.628;2023-05-16T16:12:41;19.80;54.10
1259;DHT22;619;51.472;6.628;2023-05-16T16:15:09;19.90;54.30
1259;DHT22;619;51.472;6.628;2023-05-16T16:17:37;20.00;53.90
1259;DHT22;619;51.472;6.628;2023-05-16T16:20:03;20.10;53.50
1259;DHT22;619;51.472;6.628;2023-05-16T16:22:31;20.20;53.20
1259;DHT22;619;51.472;6.628;2023-05-16T16:24:57;20.30;53.00
1259;DHT22;619;51.472;6.628;2023-05-16T16:27:25;20.30;53.00
1259;DHT22;619;51.472;6.628;2023-05-16T16:29:50;20.30;52.90
1259;DHT22;619;51.472;6.628;2023-05-16T16:32:16;20.30;52.80
1259;DHT22;619;51.472;6.628;2023-05-16T16:34:44;20.20;52.60
1259;DHT22;619;51.472;6.628;2023-05-16T16:37:11;20.20;53.10
1259;DHT22;619;51.472;6.628;2023-05-16T16:39:40;20.10;53.50
1259;DHT22;619;51.472;6.628;2023-05-16T16:42:08;20.00;53.70
1259;DHT22;619;51.472;6.628;2023-05-16T16:44:33;20.00;54.30
1259;DHT22;619;51.472;6.628;2023-05-16T16:47:03;19.90;55.00
1259;DHT22;619;51.472;6.628;2023-05-16T16:49:31;19.90;55.20
1259;DHT22;619;51.472;6.628;2023-05-16T16:51:59;19.90;54.90
1259;DHT22;619;51.472;6.628;2023-05-16T16:54:27;19.90;55.40
1259;DHT22;619;51.472;6.628;2023-05-16T16:56:54;19.90;55.30
1259;DHT22;619;51.472;6.628;2023-05-16T16:59:25;19.90;55.30
1259;DHT22;619;51.472;6.628;2023-05-16T17:01:51;19.80;54.70
1259;DHT22;619;51.472;6.628;2023-05-16T17:04:19;19.70;54.60